Detailed System and Site Information

System Data Health
Measure Timestamp Ago Health
Web Server Live 15:23:22, 25th April 2015 0 s health
Last live-data upload from local system (nw3) 15:23:21, 25th April 2015 1 s health
Last upload of secondary data 15:00:26, 25th April 2015 23 mins health
Latest Webcam upload 15:23:08, 25th April 2015 14 s health
Last upload of 24hr data log 15:19:08, 25th April 2015 4 mins health
Last full data process 15:20:03, 25th April 2015 3 mins health
Last data downtime (>15 mins) 11:16:01, 23rd March 2015 33 days
Local System and Site Information
Measure Value
WD Version & Build # 10.37R - 40
WD Start Time 08:14 11/04/15
WD Data Count 429736
WD Memory Use 73,236 K
--- ---
Windows Uptime 14 Days 6 Hours 47 Minutes 5 Seconds
Free System Memory 2538 MB (Max: 4GB)
--- ---
Station Altitude 57 m (187 ft)
Station Latitude 51.556
Station Longitude -0.154
Machine Room Conditions
Measure Value
Temperature 20.3 °C
Temperature Trend -0.2 °C /hr
Relative Humidity 40%
Dew Point 6.2 °C
--- ---
Tmin Today 19.9 °C at 00:00
Tmax Today 20.7 °C at 12:57
Hmin Today 40% at 11:25
Hmax Today 43% at 03:58
Tmin Yesterday 18.8 °C at 06:35
Tmax Yesterday 19.9 °C at 23:07

Site owner and administrator: Ben Lee-Rodgers (2010 - present)

Last 10hrs Temp/Hum for Secondary Sensor and Indoors

Extra Sensors/Indoor

Other

Raw METAR from EGLL (Heathrow)

EGLL 251350Z 25011KT 9999 FEW043 18/07 Q1005 NOSIG
Decode Instructions
Source

WD Screenshot

not available